Terminal Aerodrome Forecast
Issued by NWS Binghamton, NY

Home | Current Version | Previous Version | Text Only | Print | Product List | Glossary On
Versions: 1 2 3 4 5 6 7 8 9 10 11 12 13 14 15 16 17 18 19 20
000
FTUS41 KBGM 050538
TAFAVP
TAF
KAVP 050538Z 0506/0606 15005KT P6SM OVC050
     FM050700 15006KT 4SM -SN OVC025
      TEMPO 0507/0511 1 1/2SM -SN OVC015
     FM051100 18006KT 6SM -RASN OVC015
     FM051400 25008KT P6SM BKN020
     FM051800 29008KT P6SM BKN035
     FM060000 30005KT P6SM SCT035=

USA.gov is the U.S. government's official web portal to all federal, state and local government web resources and services.